createdAt,value
2019-05-03T00:01:02.396Z,97.85
2019-05-03T00:03:28.463Z,98.93
2019-05-03T00:05:56.324Z,99.23
2019-05-03T00:08:22.362Z,100.00
2019-05-03T00:10:48.512Z,100.00
2019-05-03T00:13:14.540Z,100.00
2019-05-03T00:15:54.515Z,100.00
2019-05-03T00:18:22.129Z,100.00
2019-05-03T00:20:48.253Z,100.00
2019-05-03T00:23:14.320Z,100.00
2019-05-03T00:25:41.785Z,100.00
2019-05-03T00:28:07.963Z,100.00
2019-05-03T00:30:33.993Z,100.00
2019-05-03T00:33:00.072Z,100.00
2019-05-03T00:35:27.814Z,100.00
2019-05-03T00:37:55.546Z,100.00
2019-05-03T00:40:28.121Z,99.78
2019-05-03T00:42:54.165Z,100.00
2019-05-03T00:45:22.034Z,97.83
2019-05-03T00:47:48.014Z,98.70
2019-05-03T00:50:14.037Z,97.95
2019-05-03T00:52:39.915Z,96.75
2019-05-03T00:55:15.781Z,96.49
2019-05-03T00:57:33.684Z,97.70
2019-05-03T01:00:01.806Z,98.87
2019-05-03T01:02:27.468Z,98.90
2019-05-03T01:04:53.686Z,98.41
2019-05-03T01:07:19.831Z,97.78
2019-05-03T01:09:45.912Z,96.41
2019-05-03T01:12:12.623Z,95.76
2019-05-03T01:14:39.885Z,97.58
2019-05-03T01:17:05.751Z,97.51
2019-05-03T01:19:32.131Z,97.42
2019-05-03T01:21:58.036Z,99.19
2019-05-03T01:24:23.976Z,99.33
2019-05-03T01:26:49.970Z,98.50
2019-05-03T01:29:15.855Z,98.83
2019-05-03T01:31:44.596Z,100.00
2019-05-03T01:34:12.396Z,99.44
2019-05-03T01:36:38.596Z,99.46
2019-05-03T01:39:04.830Z,100.00
2019-05-03T01:41:32.331Z,100.00
2019-05-03T01:43:58.266Z,100.00
2019-05-03T01:46:24.333Z,100.00
2019-05-03T01:48:52.464Z,100.00
2019-05-03T01:51:22.917Z,100.00
2019-05-03T01:53:49.860Z,100.00
2019-05-03T01:56:15.756Z,100.00
2019-05-03T01:58:41.780Z,100.00
2019-05-03T02:01:15.681Z,100.00
2019-05-03T02:04:00.123Z,100.00
2019-05-03T02:06:26.074Z,100.00
2019-05-03T02:08:52.238Z,100.00
2019-05-03T02:11:18.231Z,100.00
2019-05-03T02:13:44.072Z,100.00
2019-05-03T02:16:11.601Z,100.00
2019-05-03T02:18:37.655Z,100.00
2019-05-03T02:21:03.731Z,100.00
2019-05-03T02:23:29.576Z,100.00
2019-05-03T02:25:58.941Z,100.00
2019-05-03T02:28:23.231Z,100.00
2019-05-03T02:30:49.221Z,100.00
2019-05-03T02:33:15.238Z,100.00
2019-05-03T02:35:42.944Z,100.00
2019-05-03T02:38:09.637Z,100.00
2019-05-03T02:40:35.638Z,100.00
2019-05-03T02:43:12.355Z,100.00
2019-05-03T02:45:40.361Z,100.00
2019-05-03T02:48:16.517Z,100.00
2019-05-03T02:50:42.281Z,100.00
2019-05-03T02:53:08.125Z,100.00
2019-05-03T02:55:35.914Z,100.00
2019-05-03T02:58:01.941Z,100.00
2019-05-03T03:00:37.418Z,100.00
2019-05-03T03:03:05.478Z,100.00
2019-05-03T03:05:31.451Z,100.00
2019-05-03T03:07:58.212Z,100.00
2019-05-03T03:10:26.485Z,100.00
2019-05-03T03:12:56.350Z,100.00
2019-05-03T03:15:25.690Z,100.00
2019-05-03T03:17:52.670Z,100.00
2019-05-03T03:20:18.618Z,100.00
2019-05-03T03:22:47.675Z,100.00
2019-05-03T03:25:17.508Z,100.00
2019-05-03T03:27:45.335Z,100.00
2019-05-03T03:30:30.927Z,100.00
2019-05-03T03:32:58.991Z,100.00
2019-05-03T03:35:29.834Z,100.00
2019-05-03T03:37:56.040Z,100.00
2019-05-03T03:40:25.441Z,100.00
2019-05-03T03:42:51.583Z,100.00
2019-05-03T03:45:17.653Z,100.00
2019-05-03T03:47:46.509Z,100.00
2019-05-03T03:50:15.054Z,100.00
2019-05-03T03:52:40.640Z,100.00
2019-05-03T03:55:06.991Z,100.00
2019-05-03T03:57:35.639Z,100.00
2019-05-03T04:00:05.450Z,100.00
2019-05-03T04:02:35.133Z,100.00
2019-05-03T04:05:00.134Z,100.00
2019-05-03T04:07:26.383Z,100.00
2019-05-03T04:09:56.083Z,100.00
2019-05-03T04:12:21.351Z,100.00
2019-05-03T04:15:01.719Z,100.00
2019-05-03T04:17:46.795Z,100.00
2019-05-03T04:20:16.206Z,100.00
2019-05-03T04:22:41.902Z,100.00
2019-05-03T04:25:08.061Z,100.00
2019-05-03T04:27:36.478Z,100.00
2019-05-03T04:30:05.854Z,100.00
2019-05-03T04:32:35.958Z,99.39
2019-05-03T04:35:05.371Z,100.00
2019-05-03T04:37:31.458Z,99.69
2019-05-03T04:39:57.429Z,100.00
2019-05-03T04:42:25.374Z,100.00
2019-05-03T04:44:51.119Z,100.00
2019-05-03T04:47:17.181Z,100.00
2019-05-03T04:49:45.989Z,100.00
2019-05-03T04:52:10.911Z,100.00
2019-05-03T04:54:50.618Z,100.00
2019-05-03T04:57:34.341Z,100.00
2019-05-03T04:59:45.146Z,99.60
2019-05-03T05:02:11.502Z,100.00
2019-05-03T05:04:37.334Z,99.17
2019-05-03T05:07:05.935Z,100.00
2019-05-03T05:09:31.254Z,99.98
2019-05-03T05:11:57.195Z,98.80
2019-05-03T05:14:25.656Z,98.83
2019-05-03T05:16:50.791Z,98.23
2019-05-03T05:19:18.632Z,97.93
2019-05-03T05:21:46.495Z,97.19
2019-05-03T05:24:12.513Z,97.04
2019-05-03T05:26:44.620Z,96.31
2019-05-03T05:29:15.408Z,95.69
2019-05-03T05:31:41.237Z,94.16
2019-05-03T05:34:08.809Z,92.16
2019-05-03T05:36:35.083Z,92.17
2019-05-03T05:39:00.930Z,90.83
2019-05-03T05:41:27.018Z,90.83
2019-05-03T05:43:54.845Z,90.11
2019-05-03T05:46:22.520Z,88.29
2019-05-03T05:48:49.988Z,88.27
2019-05-03T05:51:16.223Z,85.43
2019-05-03T05:53:42.187Z,86.79
2019-05-03T05:56:18.768Z,85.65
2019-05-03T05:58:52.274Z,85.15
2019-05-03T06:01:24.873Z,85.99
2019-05-03T06:03:50.647Z,85.22
2019-05-03T06:06:18.394Z,84.82
2019-05-03T06:08:49.579Z,85.57
2019-05-03T06:11:26.365Z,85.10
2019-05-03T06:13:54.607Z,84.12
2019-05-03T06:16:24.416Z,83.95
2019-05-03T06:18:52.051Z,83.86
2019-05-03T06:21:24.968Z,83.40
2019-05-03T06:23:53.100Z,82.54
2019-05-03T06:26:35.950Z,82.62
2019-05-03T06:29:04.626Z,82.73
2019-05-03T06:31:38.454Z,83.34
2019-05-03T06:34:04.591Z,82.78
2019-05-03T06:36:30.592Z,83.09
2019-05-03T06:38:56.769Z,84.26
2019-05-03T06:41:22.726Z,84.26
2019-05-03T06:43:48.886Z,84.91
2019-05-03T06:46:18.158Z,83.91
2019-05-03T06:48:44.359Z,83.56
2019-05-03T06:51:14.118Z,82.83
2019-05-03T06:53:41.930Z,82.00
2019-05-03T06:56:05.912Z,81.51
2019-05-03T06:58:35.742Z,81.55
2019-05-03T07:01:01.643Z,80.47
2019-05-03T07:03:35.461Z,80.54
2019-05-03T07:06:18.415Z,79.50
2019-05-03T07:08:55.235Z,78.56
2019-05-03T07:11:21.252Z,78.40
2019-05-03T07:13:47.121Z,76.79
2019-05-03T07:16:14.898Z,78.34
2019-05-03T07:18:40.924Z,77.45
2019-05-03T07:21:07.015Z,77.72
2019-05-03T07:23:34.758Z,76.76
2019-05-03T07:26:00.828Z,76.45
2019-05-03T07:28:26.816Z,77.07
2019-05-03T07:30:54.411Z,77.17
2019-05-03T07:33:25.559Z,75.69
2019-05-03T07:35:51.604Z,75.00
2019-05-03T07:38:17.542Z,74.73
2019-05-03T07:40:44.591Z,74.05
2019-05-03T07:43:10.715Z,74.24
2019-05-03T07:45:36.587Z,74.97
2019-05-03T07:48:04.544Z,74.47
2019-05-03T07:50:32.999Z,73.80
2019-05-03T07:52:58.285Z,72.44
2019-05-03T07:55:42.737Z,72.05
2019-05-03T07:58:10.500Z,70.66
2019-05-03T08:00:36.555Z,69.12
2019-05-03T08:03:04.912Z,68.86
2019-05-03T08:05:30.893Z,68.23
2019-05-03T08:07:56.730Z,66.87
2019-05-03T08:10:22.822Z,66.68
2019-05-03T08:12:48.676Z,67.58
2019-05-03T08:15:15.731Z,67.25
2019-05-03T08:17:41.789Z,66.03
2019-05-03T08:20:07.823Z,66.37
2019-05-03T08:22:34.533Z,66.10
2019-05-03T08:25:00.558Z,65.28
2019-05-03T08:27:26.419Z,64.81
2019-05-03T08:29:52.271Z,65.22
2019-05-03T08:32:32.400Z,64.11
2019-05-03T08:35:16.937Z,64.39
2019-05-03T08:37:50.649Z,64.31
2019-05-03T08:40:17.319Z,64.01
2019-05-03T08:42:44.463Z,63.47
2019-05-03T08:45:10.738Z,64.30
2019-05-03T08:47:36.674Z,64.21
2019-05-03T08:50:05.610Z,63.50
2019-05-03T08:52:31.775Z,63.62
2019-05-03T08:54:57.642Z,63.19
2019-05-03T08:57:25.343Z,62.58
2019-05-03T08:59:51.350Z,61.77
2019-05-03T09:02:18.125Z,61.90
2019-05-03T09:04:46.243Z,62.36
2019-05-03T09:07:14.610Z,61.38
2019-05-03T09:09:42.178Z,61.43
2019-05-03T09:12:08.156Z,59.49
2019-05-03T09:14:42.556Z,58.54
2019-05-03T09:17:02.258Z,58.97
2019-05-03T09:19:28.123Z,58.82
2019-05-03T09:21:54.885Z,58.02
2019-05-03T09:24:20.892Z,57.86
2019-05-03T09:26:46.832Z,59.02
2019-05-03T09:29:14.708Z,59.25
2019-05-03T09:31:40.568Z,57.26
2019-05-03T09:34:08.283Z,57.08
2019-05-03T09:36:34.591Z,57.16
2019-05-03T09:39:00.630Z,56.67
2019-05-03T09:41:27.167Z,56.25
2019-05-03T09:43:55.253Z,55.65
2019-05-03T09:46:23.334Z,56.10
2019-05-03T09:48:48.521Z,56.08
2019-05-03T09:51:14.897Z,55.69
2019-05-03T09:53:51.757Z,54.79
2019-05-03T09:56:19.571Z,54.79
2019-05-03T09:58:46.117Z,55.44
2019-05-03T10:01:12.250Z,53.74
2019-05-03T10:03:38.334Z,53.87
2019-05-03T10:06:04.357Z,55.21
2019-05-03T10:08:30.189Z,53.46
2019-05-03T10:11:11.519Z,53.79
2019-05-03T10:13:37.659Z,52.85
2019-05-03T10:16:05.979Z,52.58
2019-05-03T10:18:34.812Z,52.72
2019-05-03T10:21:00.785Z,54.29
2019-05-03T10:23:28.621Z,52.49
2019-05-03T10:25:55.222Z,52.80
2019-05-03T10:28:21.134Z,52.64
2019-05-03T10:30:47.102Z,52.99
2019-05-03T10:33:17.872Z,52.97
2019-05-03T10:35:45.137Z,54.04
2019-05-03T10:38:11.415Z,54.36
2019-05-03T10:40:41.592Z,54.08
2019-05-03T10:43:08.326Z,56.57
2019-05-03T10:45:35.508Z,57.85
2019-05-03T10:48:01.634Z,59.07
2019-05-03T10:50:27.700Z,60.99
2019-05-03T10:52:58.207Z,62.17
2019-05-03T10:55:25.038Z,63.34
2019-05-03T10:58:08.079Z,63.76
2019-05-03T11:00:48.184Z,64.52
2019-05-03T11:03:05.330Z,64.62
2019-05-03T11:05:31.786Z,65.82
2019-05-03T11:07:57.703Z,66.62
2019-05-03T11:10:25.281Z,66.13
2019-05-03T11:12:51.455Z,67.64
2019-05-03T11:15:17.384Z,67.32
2019-05-03T11:17:45.370Z,67.47
2019-05-03T11:20:11.446Z,67.28
2019-05-03T11:22:37.402Z,68.90
2019-05-03T11:25:05.151Z,68.35
2019-05-03T11:27:48.515Z,69.93
2019-05-03T11:30:15.758Z,71.05
2019-05-03T11:32:49.801Z,71.71
2019-05-03T11:35:24.687Z,73.34
2019-05-03T11:37:52.604Z,73.47
2019-05-03T11:40:18.567Z,73.33
2019-05-03T11:42:44.915Z,73.45
2019-05-03T11:45:11.060Z,73.56
2019-05-03T11:47:37.232Z,72.64
2019-05-03T11:50:06.376Z,71.51
2019-05-03T11:52:32.418Z,71.85
2019-05-03T11:54:58.483Z,70.50
2019-05-03T11:57:26.597Z,69.79
2019-05-03T11:59:54.645Z,68.81
2019-05-03T12:02:22.266Z,67.50
2019-05-03T12:04:48.121Z,66.77
2019-05-03T12:07:18.391Z,66.97
2019-05-03T12:09:45.203Z,67.49
2019-05-03T12:12:15.044Z,68.51
2019-05-03T12:14:40.978Z,68.10
2019-05-03T12:17:17.860Z,68.64
2019-05-03T12:19:37.883Z,68.16
2019-05-03T12:22:06.154Z,68.61
2019-05-03T12:24:32.442Z,67.69
2019-05-03T12:26:58.678Z,67.27
2019-05-03T12:29:24.779Z,68.66
2019-05-03T12:31:50.616Z,70.31
2019-05-03T12:34:16.556Z,71.89
2019-05-03T12:36:42.513Z,71.90
2019-05-03T12:39:23.211Z,71.43
2019-05-03T12:41:36.225Z,70.05
2019-05-03T12:44:04.505Z,70.70
2019-05-03T12:46:30.024Z,68.53
2019-05-03T12:48:55.861Z,67.05
2019-05-03T12:51:21.736Z,65.38
2019-05-03T12:53:47.552Z,65.17
2019-05-03T12:56:20.562Z,64.48
2019-05-03T12:58:45.540Z,64.18
2019-05-03T13:01:40.935Z,63.36
2019-05-03T13:03:59.198Z,63.72
2019-05-03T13:06:25.448Z,64.31
2019-05-03T13:08:51.468Z,65.89
2019-05-03T13:11:17.363Z,61.17
2019-05-03T13:13:45.242Z,58.51
2019-05-03T13:16:15.185Z,57.15
2019-05-03T13:18:40.816Z,57.29
2019-05-03T13:21:06.845Z,56.78
2019-05-03T13:23:35.357Z,57.70
2019-05-03T13:26:00.853Z,57.31
2019-05-03T13:28:26.816Z,58.83
2019-05-03T13:30:54.492Z,59.21
2019-05-03T13:33:20.449Z,59.57
2019-05-03T13:35:46.386Z,60.18
2019-05-03T13:38:12.237Z,66.69
2019-05-03T13:40:38.139Z,67.66
2019-05-03T13:43:06.465Z,69.44
2019-05-03T13:45:32.019Z,69.63
2019-05-03T13:47:58.003Z,70.48
2019-05-03T13:50:24.572Z,71.12
2019-05-03T13:52:50.645Z,72.22
2019-05-03T13:55:16.742Z,73.66
2019-05-03T13:57:42.658Z,75.45
2019-05-03T14:00:09.121Z,78.37
2019-05-03T14:02:35.746Z,79.99
2019-05-03T14:05:04.958Z,84.92
2019-05-03T14:07:30.979Z,88.99
2019-05-03T14:09:56.802Z,94.42
2019-05-03T14:12:24.378Z,98.55
2019-05-03T14:14:55.749Z,99.12
2019-05-03T14:17:25.200Z,100.00
2019-05-03T14:19:54.506Z,100.00
2019-05-03T14:22:22.313Z,99.52
2019-05-03T14:24:48.162Z,96.77
2019-05-03T14:27:15.637Z,96.52
2019-05-03T14:29:41.967Z,97.43
2019-05-03T14:32:07.928Z,100.00
2019-05-03T14:34:35.819Z,100.00
2019-05-03T14:37:01.666Z,100.00
2019-05-03T14:39:27.658Z,100.00
2019-05-03T14:41:55.345Z,100.00
